This is the latest recevied weather packets stored in our database for station/object DG4CB-13. If no packets are shown the sender has not sent any weather packets the latest 10 day(s).
| Time | Temp. | Humidity | Pressure | Rain* | Wind** | Luminosity | Snow |
|---|---|---|---|---|---|---|---|
| 1778004000 | 16.11° C | 79% | 1005.5 hPa | - | - | - | - |
| 1778003400 | 16.11° C | 79% | 1005.4 hPa | - | - | - | - |
| 1778002800 | 16.11° C | 77% | 1005.4 hPa | - | - | - | - |
| 1778002200 | 16.11° C | 76% | 1005.4 hPa | - | - | - | - |
| 1778001600 | 16.11° C | 76% | 1005.3 hPa | - | - | - | - |
| 1778001001 | 16.11° C | 77% | 1005.3 hPa | - | - | - | - |
| 1778000399 | 16.11° C | 76% | 1005.4 hPa | - | - | - | - |
| 1777999799 | 16.11° C | 77% | 1005.5 hPa | - | - | - | - |
| 1777999199 | 16.11° C | 77% | 1005.5 hPa | - | - | - | - |
| 1777998600 | 16.11° C | 77% | 1005.7 hPa | - | - | - | - |
| 1777998000 | 16.11° C | 76% | 1005.6 hPa | - | - | - | - |
| 1777997400 | 16.67° C | 72% | 1005.4 hPa | - | - | - | - |
| 1777996801 | 17.78° C | 66% | 1005.4 hPa | - | - | - | - |
| 1777996200 | 18.89° C | 61% | 1005.3 hPa | - | - | - | - |
| 1777995601 | 19.44° C | 56% | 1005.2 hPa | - | - | - | - |
| 1777995000 | 20.56° C | 52% | 1005.1 hPa | - | - | - | - |
| 1777994400 | 21.11° C | 48% | 1004.8 hPa | - | - | - | - |
| 1777993800 | 21.11° C | 46% | 1004.9 hPa | - | - | - | - |
| 1777993200 | 21.67° C | 46% | 1005 hPa | - | - | - | - |
| 1777992600 | 22.22° C | 47% | 1005.1 hPa | - | - | - | - |
| 1777992000 | 22.22° C | 46% | 1005.1 hPa | - | - | - | - |
| 1777991400 | 22.22° C | 45% | 1005.1 hPa | - | - | - | - |
| 1777990800 | 22.22° C | 46% | 1005.2 hPa | - | - | - | - |
| 1777989600 | 21.67° C | 48% | 1005.5 hPa | - | - | - | - |
| 1777989000 | 21.67° C | 49% | 1005.6 hPa | - | - | - | - |
* Rain since midnight (hover to see other rain measurements)
** Current wind speed in m/s (hover to see current wind gust speed)